sensor_id;sensor_type;location;lat;lon;timestamp;pressure;altitude;pressure_sealevel;temperature;humidity
62055;BME280;48653;51.742;-1.256;2023-05-22T00:01:53;101496.15;;;13.54;42.87
62055;BME280;48653;51.742;-1.256;2023-05-22T00:04:19;101493.30;;;12.78;43.39
62055;BME280;48653;51.742;-1.256;2023-05-22T00:06:44;101493.67;;;13.14;42.58
62055;BME280;48653;51.742;-1.256;2023-05-22T00:09:09;101495.40;;;12.54;43.06
62055;BME280;48653;51.742;-1.256;2023-05-22T00:11:35;101491.17;;;13.03;42.85
62055;BME280;48653;51.742;-1.256;2023-05-22T00:14:00;101486.35;;;13.20;41.84
62055;BME280;48653;51.742;-1.256;2023-05-22T00:16:26;101486.58;;;13.74;41.08
62055;BME280;48653;51.742;-1.256;2023-05-22T00:18:51;101484.24;;;13.39;41.42
62055;BME280;48653;51.742;-1.256;2023-05-22T00:21:16;101483.49;;;13.28;42.37
62055;BME280;48653;51.742;-1.256;2023-05-22T00:23:41;101483.17;;;13.49;41.88
62055;BME280;48653;51.742;-1.256;2023-05-22T00:26:06;101475.92;;;13.96;41.45
62055;BME280;48653;51.742;-1.256;2023-05-22T00:28:32;101474.73;;;14.34;41.31
62055;BME280;48653;51.742;-1.256;2023-05-22T00:30:58;101472.32;;;13.45;41.29
62055;BME280;48653;51.742;-1.256;2023-05-22T00:33:23;101472.87;;;13.37;41.69
62055;BME280;48653;51.742;-1.256;2023-05-22T00:35:48;101469.71;;;13.52;42.06
62055;BME280;48653;51.742;-1.256;2023-05-22T00:38:27;101469.50;;;14.20;39.97
62055;BME280;48653;51.742;-1.256;2023-05-22T00:40:39;101469.38;;;13.28;40.57
62055;BME280;48653;51.742;-1.256;2023-05-22T00:43:04;101468.61;;;13.53;40.58
62055;BME280;48653;51.742;-1.256;2023-05-22T00:45:30;101467.60;;;13.13;40.78
62055;BME280;48653;51.742;-1.256;2023-05-22T00:47:55;101470.88;;;12.18;41.98
62055;BME280;48653;51.742;-1.256;2023-05-22T00:50:20;101468.71;;;12.96;40.83
62055;BME280;48653;51.742;-1.256;2023-05-22T00:52:46;101467.77;;;12.82;41.47
62055;BME280;48653;51.742;-1.256;2023-05-22T00:55:12;101465.82;;;12.13;42.22
62055;BME280;48653;51.742;-1.256;2023-05-22T00:57:37;101462.83;;;12.32;41.27
62055;BME280;48653;51.742;-1.256;2023-05-22T01:00:02;101463.05;;;13.16;40.56
62055;BME280;48653;51.742;-1.256;2023-05-22T01:02:28;101459.15;;;13.24;40.58
62055;BME280;48653;51.742;-1.256;2023-05-22T01:04:52;101459.86;;;12.94;40.76
62055;BME280;48653;51.742;-1.256;2023-05-22T01:07:18;101454.86;;;12.55;41.32
62055;BME280;48653;51.742;-1.256;2023-05-22T01:09:43;101453.81;;;11.72;42.21
62055;BME280;48653;51.742;-1.256;2023-05-22T01:12:19;101455.92;;;12.15;42.35
62055;BME280;48653;51.742;-1.256;2023-05-22T01:14:42;101457.75;;;13.02;41.11
62055;BME280;48653;51.742;-1.256;2023-05-22T01:17:05;101459.05;;;12.51;41.21
62055;BME280;48653;51.742;-1.256;2023-05-22T01:19:42;101458.24;;;13.15;41.10
62055;BME280;48653;51.742;-1.256;2023-05-22T01:21:57;101458.39;;;12.31;41.25
62055;BME280;48653;51.742;-1.256;2023-05-22T01:24:33;101457.44;;;13.19;40.59
62055;BME280;48653;51.742;-1.256;2023-05-22T01:26:58;101454.04;;;13.40;40.02
62055;BME280;48653;51.742;-1.256;2023-05-22T01:29:20;101458.76;;;13.70;39.77
62055;BME280;48653;51.742;-1.256;2023-05-22T01:31:38;101456.75;;;13.58;39.31
62055;BME280;48653;51.742;-1.256;2023-05-22T01:34:00;101448.67;;;13.64;39.16
62055;BME280;48653;51.742;-1.256;2023-05-22T01:36:28;101444.70;;;13.84;39.13
62055;BME280;48653;51.742;-1.256;2023-05-22T01:38:51;101440.96;;;13.07;39.25
62055;BME280;48653;51.742;-1.256;2023-05-22T01:41:16;101437.41;;;13.80;38.60
62055;BME280;48653;51.742;-1.256;2023-05-22T01:43:41;101436.55;;;13.27;39.71
62055;BME280;48653;51.742;-1.256;2023-05-22T01:46:07;101436.31;;;12.99;39.70
62055;BME280;48653;51.742;-1.256;2023-05-22T01:48:32;101434.48;;;12.50;39.88
62055;BME280;48653;51.742;-1.256;2023-05-22T01:53:29;101431.83;;;13.62;38.90
62055;BME280;48653;51.742;-1.256;2023-05-22T01:56:03;101430.37;;;13.71;38.88
62055;BME280;48653;51.742;-1.256;2023-05-22T01:58:20;101431.70;;;14.04;39.03
62055;BME280;48653;51.742;-1.256;2023-05-22T02:00:40;101429.57;;;14.19;39.30
62055;BME280;48653;51.742;-1.256;2023-05-22T02:03:06;101427.24;;;12.98;39.33
62055;BME280;48653;51.742;-1.256;2023-05-22T02:05:31;101428.88;;;14.13;38.49
62055;BME280;48653;51.742;-1.256;2023-05-22T02:07:57;101423.40;;;13.88;39.08
62055;BME280;48653;51.742;-1.256;2023-05-22T02:10:21;101424.62;;;13.97;39.45
62055;BME280;48653;51.742;-1.256;2023-05-22T02:12:46;101424.71;;;14.01;39.21
62055;BME280;48653;51.742;-1.256;2023-05-22T02:15:11;101425.62;;;13.70;39.38
62055;BME280;48653;51.742;-1.256;2023-05-22T02:17:37;101424.97;;;13.45;39.59
62055;BME280;48653;51.742;-1.256;2023-05-22T02:20:03;101424.21;;;14.44;38.76
62055;BME280;48653;51.742;-1.256;2023-05-22T02:22:28;101423.26;;;13.55;39.35
62055;BME280;48653;51.742;-1.256;2023-05-22T02:24:53;101420.64;;;13.74;39.15
62055;BME280;48653;51.742;-1.256;2023-05-22T02:27:18;101424.74;;;13.02;40.35
62055;BME280;48653;51.742;-1.256;2023-05-22T02:29:44;101417.52;;;13.53;39.78
62055;BME280;48653;51.742;-1.256;2023-05-22T02:32:09;101419.30;;;14.14;39.63
62055;BME280;48653;51.742;-1.256;2023-05-22T02:34:34;101422.39;;;13.89;39.61
62055;BME280;48653;51.742;-1.256;2023-05-22T02:36:59;101420.71;;;13.86;39.10
62055;BME280;48653;51.742;-1.256;2023-05-22T02:39:24;101419.22;;;14.02;39.36
62055;BME280;48653;51.742;-1.256;2023-05-22T02:41:50;101419.12;;;13.71;40.05
62055;BME280;48653;51.742;-1.256;2023-05-22T02:44:15;101419.18;;;13.80;40.10
62055;BME280;48653;51.742;-1.256;2023-05-22T02:46:40;101421.70;;;14.02;39.84
62055;BME280;48653;51.742;-1.256;2023-05-22T02:49:06;101421.94;;;13.87;39.44
62055;BME280;48653;51.742;-1.256;2023-05-22T02:51:32;101421.86;;;14.12;39.25
62055;BME280;48653;51.742;-1.256;2023-05-22T02:53:57;101419.87;;;14.05;40.02
62055;BME280;48653;51.742;-1.256;2023-05-22T02:56:22;101417.38;;;14.22;39.88
62055;BME280;48653;51.742;-1.256;2023-05-22T02:58:48;101417.59;;;13.85;40.16
62055;BME280;48653;51.742;-1.256;2023-05-22T03:01:14;101412.04;;;14.00;40.19
62055;BME280;48653;51.742;-1.256;2023-05-22T03:03:39;101411.70;;;14.04;39.63
62055;BME280;48653;51.742;-1.256;2023-05-22T03:06:05;101405.31;;;13.31;41.08
62055;BME280;48653;51.742;-1.256;2023-05-22T03:08:30;101407.59;;;14.15;39.74
62055;BME280;48653;51.742;-1.256;2023-05-22T03:10:56;101404.42;;;14.05;40.16
62055;BME280;48653;51.742;-1.256;2023-05-22T03:13:20;101408.74;;;14.01;39.62
62055;BME280;48653;51.742;-1.256;2023-05-22T03:15:46;101402.78;;;13.69;40.03
62055;BME280;48653;51.742;-1.256;2023-05-22T03:18:11;101403.64;;;14.35;39.17
62055;BME280;48653;51.742;-1.256;2023-05-22T03:20:36;101398.73;;;13.30;40.65
62055;BME280;48653;51.742;-1.256;2023-05-22T03:23:03;101396.46;;;13.70;40.13
62055;BME280;48653;51.742;-1.256;2023-05-22T03:25:28;101398.83;;;13.64;40.34
62055;BME280;48653;51.742;-1.256;2023-05-22T03:27:53;101400.96;;;13.34;40.74
62055;BME280;48653;51.742;-1.256;2023-05-22T03:30:19;101398.13;;;13.28;40.92
62055;BME280;48653;51.742;-1.256;2023-05-22T03:32:44;101398.29;;;13.49;40.70
62055;BME280;48653;51.742;-1.256;2023-05-22T03:35:10;101401.04;;;12.69;41.89
62055;BME280;48653;51.742;-1.256;2023-05-22T03:37:35;101399.00;;;12.83;41.64
62055;BME280;48653;51.742;-1.256;2023-05-22T03:40:01;101403.20;;;12.16;42.80
62055;BME280;48653;51.742;-1.256;2023-05-22T03:42:26;101401.59;;;12.29;42.85
62055;BME280;48653;51.742;-1.256;2023-05-22T03:44:52;101399.02;;;13.42;41.16
62055;BME280;48653;51.742;-1.256;2023-05-22T03:47:17;101403.19;;;12.59;42.50
62055;BME280;48653;51.742;-1.256;2023-05-22T03:49:42;101402.92;;;12.74;41.87
62055;BME280;48653;51.742;-1.256;2023-05-22T03:52:09;101402.64;;;13.06;41.61
62055;BME280;48653;51.742;-1.256;2023-05-22T03:54:33;101401.29;;;12.97;41.66
62055;BME280;48653;51.742;-1.256;2023-05-22T03:56:59;101404.62;;;12.65;42.25
62055;BME280;48653;51.742;-1.256;2023-05-22T03:59:24;101397.24;;;12.82;41.85
62055;BME280;48653;51.742;-1.256;2023-05-22T04:01:49;101396.39;;;13.56;41.26
62055;BME280;48653;51.742;-1.256;2023-05-22T04:06:40;101398.13;;;12.98;42.19
62055;BME280;48653;51.742;-1.256;2023-05-22T04:09:05;101397.08;;;13.59;40.90
62055;BME280;48653;51.742;-1.256;2023-05-22T04:11:30;101396.05;;;12.86;42.13
62055;BME280;48653;51.742;-1.256;2023-05-22T04:13:55;101397.64;;;13.40;42.00
62055;BME280;48653;51.742;-1.256;2023-05-22T04:16:21;101399.31;;;13.19;41.86
62055;BME280;48653;51.742;-1.256;2023-05-22T04:18:47;101396.46;;;12.63;42.39
62055;BME280;48653;51.742;-1.256;2023-05-22T04:21:12;101398.58;;;12.56;42.75
62055;BME280;48653;51.742;-1.256;2023-05-22T04:23:38;101396.63;;;12.53;43.22
62055;BME280;48653;51.742;-1.256;2023-05-22T04:26:05;101397.88;;;13.20;42.40
62055;BME280;48653;51.742;-1.256;2023-05-22T04:28:29;101397.33;;;12.53;43.49
62055;BME280;48653;51.742;-1.256;2023-05-22T04:30:55;101394.98;;;12.86;43.38
62055;BME280;48653;51.742;-1.256;2023-05-22T04:33:20;101390.68;;;13.02;42.32
62055;BME280;48653;51.742;-1.256;2023-05-22T04:35:45;101392.28;;;12.64;43.32
62055;BME280;48653;51.742;-1.256;2023-05-22T04:38:10;101393.40;;;12.15;43.57
62055;BME280;48653;51.742;-1.256;2023-05-22T04:40:35;101394.66;;;12.64;42.73
62055;BME280;48653;51.742;-1.256;2023-05-22T04:43:01;101397.34;;;12.20;43.66
62055;BME280;48653;51.742;-1.256;2023-05-22T04:45:27;101397.29;;;12.80;42.87
62055;BME280;48653;51.742;-1.256;2023-05-22T04:47:52;101398.36;;;13.05;42.32
62055;BME280;48653;51.742;-1.256;2023-05-22T04:50:17;101403.12;;;13.02;42.40
62055;BME280;48653;51.742;-1.256;2023-05-22T04:52:42;101405.73;;;13.42;41.13
62055;BME280;48653;51.742;-1.256;2023-05-22T04:55:08;101408.70;;;13.24;41.19
62055;BME280;48653;51.742;-1.256;2023-05-22T04:57:33;101413.38;;;13.64;40.91
62055;BME280;48653;51.742;-1.256;2023-05-22T04:59:58;101411.36;;;13.71;40.55
62055;BME280;48653;51.742;-1.256;2023-05-22T05:02:23;101413.33;;;13.01;42.20
62055;BME280;48653;51.742;-1.256;2023-05-22T05:04:49;101411.84;;;13.04;42.05
62055;BME280;48653;51.742;-1.256;2023-05-22T05:07:14;101412.02;;;13.08;41.99
62055;BME280;48653;51.742;-1.256;2023-05-22T05:09:44;101412.01;;;13.25;41.52
62055;BME280;48653;51.742;-1.256;2023-05-22T05:12:06;101411.39;;;12.97;42.18
62055;BME280;48653;51.742;-1.256;2023-05-22T05:14:31;101412.61;;;13.15;41.63
62055;BME280;48653;51.742;-1.256;2023-05-22T05:16:56;101419.36;;;14.01;39.50
62055;BME280;48653;51.742;-1.256;2023-05-22T05:19:22;101422.34;;;13.96;40.25
62055;BME280;48653;51.742;-1.256;2023-05-22T05:21:47;101427.09;;;13.87;39.78
62055;BME280;48653;51.742;-1.256;2023-05-22T05:24:12;101421.67;;;13.90;39.82
62055;BME280;48653;51.742;-1.256;2023-05-22T05:26:37;101423.24;;;13.69;40.73
62055;BME280;48653;51.742;-1.256;2023-05-22T05:29:03;101424.64;;;12.47;41.74
62055;BME280;48653;51.742;-1.256;2023-05-22T05:31:28;101425.71;;;13.43;41.24
62055;BME280;48653;51.742;-1.256;2023-05-22T05:33:54;101424.21;;;13.09;41.55
62055;BME280;48653;51.742;-1.256;2023-05-22T05:36:19;101431.19;;;14.18;40.10
62055;BME280;48653;51.742;-1.256;2023-05-22T05:38:44;101432.44;;;12.98;41.96
62055;BME280;48653;51.742;-1.256;2023-05-22T05:41:10;101438.29;;;12.56;41.92
62055;BME280;48653;51.742;-1.256;2023-05-22T05:43:35;101437.97;;;13.14;41.91
62055;BME280;48653;51.742;-1.256;2023-05-22T05:46:01;101439.16;;;12.65;42.28
62055;BME280;48653;51.742;-1.256;2023-05-22T05:48:26;101438.25;;;12.71;42.97
62055;BME280;48653;51.742;-1.256;2023-05-22T05:50:51;101440.69;;;12.61;42.55
62055;BME280;48653;51.742;-1.256;2023-05-22T05:53:16;101438.96;;;12.70;42.57
62055;BME280;48653;51.742;-1.256;2023-05-22T05:55:42;101440.92;;;12.72;42.29
62055;BME280;48653;51.742;-1.256;2023-05-22T05:58:07;101441.10;;;12.35;42.43
62055;BME280;48653;51.742;-1.256;2023-05-22T06:00:32;101441.55;;;13.00;42.16
62055;BME280;48653;51.742;-1.256;2023-05-22T06:02:58;101444.39;;;12.87;42.08
62055;BME280;48653;51.742;-1.256;2023-05-22T06:05:23;101448.90;;;13.13;41.91
62055;BME280;48653;51.742;-1.256;2023-05-22T06:07:48;101451.86;;;12.90;42.09
62055;BME280;48653;51.742;-1.256;2023-05-22T06:10:14;101450.79;;;12.80;42.22
62055;BME280;48653;51.742;-1.256;2023-05-22T06:12:39;101450.48;;;14.05;41.25
62055;BME280;48653;51.742;-1.256;2023-05-22T06:15:06;101454.89;;;12.73;42.34
62055;BME280;48653;51.742;-1.256;2023-05-22T06:17:30;101454.95;;;13.01;42.04
62055;BME280;48653;51.742;-1.256;2023-05-22T06:19:56;101455.27;;;13.39;41.20
62055;BME280;48653;51.742;-1.256;2023-05-22T06:22:21;101458.02;;;14.37;39.83
62055;BME280;48653;51.742;-1.256;2023-05-22T06:24:46;101460.56;;;13.66;40.76
62055;BME280;48653;51.742;-1.256;2023-05-22T06:27:12;101461.08;;;13.44;40.60
62055;BME280;48653;51.742;-1.256;2023-05-22T06:29:37;101461.39;;;12.36;42.75
62055;BME280;48653;51.742;-1.256;2023-05-22T06:32:03;101463.28;;;13.27;41.28
62055;BME280;48653;51.742;-1.256;2023-05-22T06:34:28;101468.35;;;14.37;39.11
62055;BME280;48653;51.742;-1.256;2023-05-22T06:36:53;101470.55;;;13.23;40.94
62055;BME280;48653;51.742;-1.256;2023-05-22T06:39:21;101472.62;;;13.65;40.09
62055;BME280;48653;51.742;-1.256;2023-05-22T06:41:44;101474.42;;;13.68;39.87
62055;BME280;48653;51.742;-1.256;2023-05-22T06:44:09;101469.39;;;13.14;40.19
62055;BME280;48653;51.742;-1.256;2023-05-22T06:46:34;101476.20;;;12.11;41.78
62055;BME280;48653;51.742;-1.256;2023-05-22T06:49:00;101472.94;;;13.36;40.90
62055;BME280;48653;51.742;-1.256;2023-05-22T06:51:30;101474.71;;;13.41;40.65
62055;BME280;48653;51.742;-1.256;2023-05-22T06:53:50;101476.11;;;13.21;40.41
62055;BME280;48653;51.742;-1.256;2023-05-22T06:56:16;101473.94;;;13.59;39.90
62055;BME280;48653;51.742;-1.256;2023-05-22T06:58:40;101476.89;;;13.74;40.44
62055;BME280;48653;51.742;-1.256;2023-05-22T07:01:05;101481.96;;;13.90;40.30
62055;BME280;48653;51.742;-1.256;2023-05-22T07:03:31;101481.25;;;13.25;40.60
62055;BME280;48653;51.742;-1.256;2023-05-22T07:05:56;101485.10;;;12.92;40.52
62055;BME280;48653;51.742;-1.256;2023-05-22T07:08:22;101486.59;;;12.56;41.10
62055;BME280;48653;51.742;-1.256;2023-05-22T07:10:47;101492.60;;;13.82;40.34
62055;BME280;48653;51.742;-1.256;2023-05-22T07:13:12;101498.24;;;13.25;40.55
62055;BME280;48653;51.742;-1.256;2023-05-22T07:15:37;101499.12;;;13.60;39.77
62055;BME280;48653;51.742;-1.256;2023-05-22T07:18:03;101500.39;;;13.51;39.01
62055;BME280;48653;51.742;-1.256;2023-05-22T07:20:28;101505.77;;;13.43;39.49
62055;BME280;48653;51.742;-1.256;2023-05-22T07:22:53;101509.05;;;12.88;39.84
62055;BME280;48653;51.742;-1.256;2023-05-22T07:25:19;101511.40;;;13.73;38.54
62055;BME280;48653;51.742;-1.256;2023-05-22T07:27:44;101515.18;;;13.10;39.71
62055;BME280;48653;51.742;-1.256;2023-05-22T07:30:10;101514.29;;;13.18;40.13
62055;BME280;48653;51.742;-1.256;2023-05-22T07:32:35;101519.01;;;12.84;40.60
62055;BME280;48653;51.742;-1.256;2023-05-22T07:35:02;101524.07;;;12.47;41.36
62055;BME280;48653;51.742;-1.256;2023-05-22T07:37:26;101527.26;;;13.50;40.16
62055;BME280;48653;51.742;-1.256;2023-05-22T07:39:52;101531.06;;;13.16;40.65
62055;BME280;48653;51.742;-1.256;2023-05-22T07:42:17;101536.03;;;13.92;39.02
62055;BME280;48653;51.742;-1.256;2023-05-22T07:44:44;101534.11;;;14.40;38.25
62055;BME280;48653;51.742;-1.256;2023-05-22T07:47:08;101537.05;;;14.71;37.18
62055;BME280;48653;51.742;-1.256;2023-05-22T07:49:33;101540.39;;;14.49;38.04
62055;BME280;48653;51.742;-1.256;2023-05-22T07:52:03;101544.08;;;15.60;36.28
62055;BME280;48653;51.742;-1.256;2023-05-22T07:54:24;101545.59;;;15.49;37.28
62055;BME280;48653;51.742;-1.256;2023-05-22T07:56:49;101542.45;;;14.46;38.58
62055;BME280;48653;51.742;-1.256;2023-05-22T07:59:14;101544.00;;;14.64;38.60
62055;BME280;48653;51.742;-1.256;2023-05-22T08:01:39;101543.32;;;15.45;37.94
62055;BME280;48653;51.742;-1.256;2023-05-22T08:04:04;101544.27;;;15.84;37.76
62055;BME280;48653;51.742;-1.256;2023-05-22T08:06:29;101548.41;;;15.77;36.86
62055;BME280;48653;51.742;-1.256;2023-05-22T08:08:54;101551.49;;;15.91;36.92
62055;BME280;48653;51.742;-1.256;2023-05-22T08:11:19;101555.12;;;15.33;37.33
62055;BME280;48653;51.742;-1.256;2023-05-22T08:13:44;101558.80;;;14.41;38.19
62055;BME280;48653;51.742;-1.256;2023-05-22T08:16:10;101554.24;;;14.15;39.03
62055;BME280;48653;51.742;-1.256;2023-05-22T08:18:35;101556.64;;;14.23;38.79
62055;BME280;48653;51.742;-1.256;2023-05-22T08:21:01;101552.72;;;13.43;39.24
62055;BME280;48653;51.742;-1.256;2023-05-22T08:23:26;101555.00;;;14.87;38.95
62055;BME280;48653;51.742;-1.256;2023-05-22T08:25:52;101551.80;;;14.17;37.92
62055;BME280;48653;51.742;-1.256;2023-05-22T08:28:17;101551.00;;;14.87;37.82
62055;BME280;48653;51.742;-1.256;2023-05-22T08:30:43;101552.78;;;15.29;36.80
62055;BME280;48653;51.742;-1.256;2023-05-22T08:33:08;101550.57;;;14.66;37.43
62055;BME280;48653;51.742;-1.256;2023-05-22T08:35:34;101553.55;;;14.29;37.79
62055;BME280;48653;51.742;-1.256;2023-05-22T08:37:59;101559.92;;;15.18;38.31
62055;BME280;48653;51.742;-1.256;2023-05-22T08:40:26;101562.56;;;15.03;37.78
62055;BME280;48653;51.742;-1.256;2023-05-22T08:42:49;101558.72;;;15.58;36.91
62055;BME280;48653;51.742;-1.256;2023-05-22T08:45:14;101560.95;;;15.75;36.24
62055;BME280;48653;51.742;-1.256;2023-05-22T08:47:40;101564.86;;;14.77;37.46
62055;BME280;48653;51.742;-1.256;2023-05-22T08:50:06;101571.22;;;15.12;37.05
62055;BME280;48653;51.742;-1.256;2023-05-22T08:52:33;101577.03;;;15.25;36.84
62055;BME280;48653;51.742;-1.256;2023-05-22T08:54:55;101577.69;;;15.33;36.94
62055;BME280;48653;51.742;-1.256;2023-05-22T08:57:20;101577.94;;;15.85;36.38
62055;BME280;48653;51.742;-1.256;2023-05-22T08:59:46;101584.51;;;15.69;36.72
62055;BME280;48653;51.742;-1.256;2023-05-22T09:02:11;101580.39;;;15.86;36.72
62055;BME280;48653;51.742;-1.256;2023-05-22T09:04:36;101577.64;;;15.14;37.08
62055;BME280;48653;51.742;-1.256;2023-05-22T09:07:02;101578.96;;;14.67;38.08
62055;BME280;48653;51.742;-1.256;2023-05-22T09:09:27;101584.25;;;14.25;38.03
62055;BME280;48653;51.742;-1.256;2023-05-22T09:11:53;101587.44;;;15.38;37.71
62055;BME280;48653;51.742;-1.256;2023-05-22T09:14:18;101590.61;;;15.22;37.30
62055;BME280;48653;51.742;-1.256;2023-05-22T09:16:44;101587.48;;;14.63;37.83
62055;BME280;48653;51.742;-1.256;2023-05-22T09:19:10;101588.05;;;14.58;37.92
62055;BME280;48653;51.742;-1.256;2023-05-22T09:21:35;101588.61;;;13.90;38.86
62055;BME280;48653;51.742;-1.256;2023-05-22T09:24:00;101589.53;;;14.42;38.55
62055;BME280;48653;51.742;-1.256;2023-05-22T09:26:26;101591.93;;;14.18;39.10
62055;BME280;48653;51.742;-1.256;2023-05-22T09:28:50;101585.64;;;14.44;38.52
62055;BME280;48653;51.742;-1.256;2023-05-22T09:31:16;101585.69;;;14.10;38.60
62055;BME280;48653;51.742;-1.256;2023-05-22T09:33:43;101578.74;;;14.09;38.06
62055;BME280;48653;51.742;-1.256;2023-05-22T09:36:08;101579.01;;;14.12;38.38
62055;BME280;48653;51.742;-1.256;2023-05-22T09:38:31;101573.73;;;14.68;37.65
62055;BME280;48653;51.742;-1.256;2023-05-22T09:40:56;101576.07;;;15.11;36.75
62055;BME280;48653;51.742;-1.256;2023-05-22T09:43:22;101575.27;;;14.88;37.88
62055;BME280;48653;51.742;-1.256;2023-05-22T09:45:46;101573.71;;;15.23;37.58
62055;BME280;48653;51.742;-1.256;2023-05-22T09:48:15;101577.47;;;15.72;37.07
62055;BME280;48653;51.742;-1.256;2023-05-22T09:50:37;101573.50;;;14.70;37.32
62055;BME280;48653;51.742;-1.256;2023-05-22T09:53:03;101573.99;;;15.18;37.34
62055;BME280;48653;51.742;-1.256;2023-05-22T09:55:27;101575.18;;;15.34;36.58
62055;BME280;48653;51.742;-1.256;2023-05-22T09:57:53;101576.85;;;15.48;37.71
62055;BME280;48653;51.742;-1.256;2023-05-22T10:00:17;101573.17;;;14.67;37.43
62055;BME280;48653;51.742;-1.256;2023-05-22T10:02:44;101577.94;;;15.98;36.59
62055;BME280;48653;51.742;-1.256;2023-05-22T10:05:08;101578.56;;;15.77;37.50
62055;BME280;48653;51.742;-1.256;2023-05-22T10:07:35;101571.45;;;15.90;37.88
62055;BME280;48653;51.742;-1.256;2023-05-22T10:10:03;101571.83;;;15.72;37.22
62055;BME280;48653;51.742;-1.256;2023-05-22T10:12:24;101570.88;;;15.08;37.91
62055;BME280;48653;51.742;-1.256;2023-05-22T10:14:50;101567.34;;;15.31;38.21
62055;BME280;48653;51.742;-1.256;2023-05-22T10:17:13;101570.54;;;15.25;37.03
62055;BME280;48653;51.742;-1.256;2023-05-22T10:19:39;101570.97;;;15.11;37.64
62055;BME280;48653;51.742;-1.256;2023-05-22T10:22:05;101568.65;;;15.62;37.77
62055;BME280;48653;51.742;-1.256;2023-05-22T10:24:29;101566.82;;;15.03;37.68
62055;BME280;48653;51.742;-1.256;2023-05-22T10:26:54;101564.89;;;15.95;36.41
62055;BME280;48653;51.742;-1.256;2023-05-22T10:29:23;101566.69;;;15.81;36.07
62055;BME280;48653;51.742;-1.256;2023-05-22T10:31:49;101573.08;;;15.45;35.85
62055;BME280;48653;51.742;-1.256;2023-05-22T10:34:20;101576.84;;;15.87;36.31
62055;BME280;48653;51.742;-1.256;2023-05-22T10:36:45;101573.05;;;15.63;35.33
62055;BME280;48653;51.742;-1.256;2023-05-22T10:39:10;101571.46;;;16.24;35.33
62055;BME280;48653;51.742;-1.256;2023-05-22T10:41:26;101575.67;;;17.25;34.76
62055;BME280;48653;51.742;-1.256;2023-05-22T10:43:55;101568.95;;;15.63;34.47
62055;BME280;48653;51.742;-1.256;2023-05-22T10:46:17;101568.89;;;16.66;34.47
62055;BME280;48653;51.742;-1.256;2023-05-22T10:48:44;101567.64;;;15.98;34.37
62055;BME280;48653;51.742;-1.256;2023-05-22T10:51:07;101559.56;;;15.87;34.59
62055;BME280;48653;51.742;-1.256;2023-05-22T10:53:33;101558.30;;;16.37;34.07
62055;BME280;48653;51.742;-1.256;2023-05-22T10:56:07;101558.02;;;17.32;33.90
62055;BME280;48653;51.742;-1.256;2023-05-22T10:58:26;101558.57;;;16.99;34.38
62055;BME280;48653;51.742;-1.256;2023-05-22T11:00:49;101556.94;;;17.29;34.83
62055;BME280;48653;51.742;-1.256;2023-05-22T11:03:14;101560.94;;;16.99;34.53
62055;BME280;48653;51.742;-1.256;2023-05-22T11:05:39;101558.66;;;17.24;34.78
62055;BME280;48653;51.742;-1.256;2023-05-22T11:08:11;101560.57;;;17.35;34.23
62055;BME280;48653;51.742;-1.256;2023-05-22T11:13:10;101560.72;;;18.00;33.41
62055;BME280;48653;51.742;-1.256;2023-05-22T11:15:29;101563.96;;;18.12;33.77
62055;BME280;48653;51.742;-1.256;2023-05-22T11:20:12;101555.54;;;17.98;33.11
62055;BME280;48653;51.742;-1.256;2023-05-22T11:25:05;101556.82;;;18.47;33.43
62055;BME280;48653;51.742;-1.256;2023-05-22T11:29:51;101558.11;;;19.44;32.85
62055;BME280;48653;51.742;-1.256;2023-05-22T11:32:17;101552.71;;;19.17;32.15
62055;BME280;48653;51.742;-1.256;2023-05-22T11:34:42;101551.14;;;19.02;33.36
62055;BME280;48653;51.742;-1.256;2023-05-22T11:37:07;101551.70;;;19.77;31.30
62055;BME280;48653;51.742;-1.256;2023-05-22T11:39:32;101543.76;;;19.52;31.06
62055;BME280;48653;51.742;-1.256;2023-05-22T11:41:57;101536.61;;;20.64;30.80
62055;BME280;48653;51.742;-1.256;2023-05-22T11:44:22;101534.29;;;21.85;29.60
62055;BME280;48653;51.742;-1.256;2023-05-22T11:46:52;101537.64;;;20.51;28.86
62055;BME280;48653;51.742;-1.256;2023-05-22T11:49:12;101527.93;;;19.68;30.47
62055;BME280;48653;51.742;-1.256;2023-05-22T11:51:38;101520.06;;;20.82;29.55
62055;BME280;48653;51.742;-1.256;2023-05-22T11:54:05;101521.75;;;20.82;27.68
62055;BME280;48653;51.742;-1.256;2023-05-22T11:56:29;101515.42;;;22.15;28.73
62055;BME280;48653;51.742;-1.256;2023-05-22T11:58:54;101511.91;;;21.71;28.16
62055;BME280;48653;51.742;-1.256;2023-05-22T12:01:22;101511.31;;;22.13;27.06
62055;BME280;48653;51.742;-1.256;2023-05-22T12:03:45;101511.38;;;21.10;26.76
62055;BME280;48653;51.742;-1.256;2023-05-22T12:06:10;101515.44;;;20.87;27.07
62055;BME280;48653;51.742;-1.256;2023-05-22T12:08:35;101515.27;;;20.40;28.06
62055;BME280;48653;51.742;-1.256;2023-05-22T12:11:04;101508.57;;;21.39;27.32
62055;BME280;48653;51.742;-1.256;2023-05-22T12:13:27;101500.65;;;21.52;28.81
62055;BME280;48653;51.742;-1.256;2023-05-22T12:15:53;101512.40;;;22.28;27.50
62055;BME280;48653;51.742;-1.256;2023-05-22T12:18:17;101504.98;;;21.90;27.99
62055;BME280;48653;51.742;-1.256;2023-05-22T12:20:41;101498.17;;;20.87;28.04
62055;BME280;48653;51.742;-1.256;2023-05-22T12:23:11;101495.72;;;21.98;27.85
62055;BME280;48653;51.742;-1.256;2023-05-22T12:25:35;101497.93;;;22.08;27.29
62055;BME280;48653;51.742;-1.256;2023-05-22T12:27:56;101497.43;;;21.38;27.22
62055;BME280;48653;51.742;-1.256;2023-05-22T12:30:22;101498.81;;;21.83;26.96
62055;BME280;48653;51.742;-1.256;2023-05-22T12:32:47;101505.85;;;21.92;25.92
62055;BME280;48653;51.742;-1.256;2023-05-22T12:35:14;101497.92;;;21.30;26.30
62055;BME280;48653;51.742;-1.256;2023-05-22T12:37:37;101493.92;;;22.41;25.93
62055;BME280;48653;51.742;-1.256;2023-05-22T12:40:03;101497.58;;;21.90;25.74
62055;BME280;48653;51.742;-1.256;2023-05-22T12:42:28;101502.77;;;21.06;26.81
62055;BME280;48653;51.742;-1.256;2023-05-22T12:44:55;101496.81;;;20.81;27.21